Time;durP1;ratioP1;P1;durP2;ratioP2;P2;SDS_P1;SDS_P2;PMS_P1;PMS_P2;Temp;Humidity;BMP_temperature;BMP_pressure;BME280_temperature;BME280_humidity;BME280_pressure;Samples;Min_cycle;Max_cycle;Signal;HPM_P1;HPM_P2
2022/07/12 00:01:36;;;;;;;3.63;2.63;;;;;;;10.46;100.00;93634.31;5094268;28;20040;-77
2022/07/12 00:04:03;;;;;;;2.88;2.58;;;;;;;10.43;100.00;93638.06;5097424;28;20398;-77
2022/07/12 00:06:30;;;;;;;4.32;3.03;;;;;;;10.43;100.00;93631.13;5099393;28;20043;-77
2022/07/12 00:08:58;;;;;;;5.00;3.00;;;;;;;10.45;100.00;93632.72;5098903;28;20493;-77
2022/07/12 00:11:25;;;;;;;4.80;3.78;;;;;;;10.42;100.00;93634.66;5097442;28;20550;-77
2022/07/12 00:13:51;;;;;;;3.15;2.85;;;;;;;10.39;100.00;93632.50;5098934;28;20093;-77
2022/07/12 00:16:18;;;;;;;4.43;3.35;;;;;;;10.26;100.00;93620.44;5099851;28;20043;-77
2022/07/12 00:18:45;;;;;;;3.40;2.97;;;;;;;10.36;100.00;93624.38;5098738;28;20443;-77
2022/07/12 00:21:11;;;;;;;3.20;2.70;;;;;;;10.37;100.00;93641.38;5098102;28;20047;-77
2022/07/12 00:23:38;;;;;;;4.55;2.75;;;;;;;10.05;100.00;93611.16;5100403;28;20089;-77
2022/07/12 00:26:07;;;;;;;3.40;2.83;;;;;;;10.15;100.00;93631.31;5098381;28;20044;-77
2022/07/12 00:28:33;;;;;;;4.35;3.05;;;;;;;10.07;100.00;93634.84;5097810;28;20508;-77
2022/07/12 00:31:01;;;;;;;3.38;3.08;;;;;;;10.06;100.00;93633.25;5097510;28;20040;-76
2022/07/12 00:33:27;;;;;;;3.92;3.25;;;;;;;10.05;100.00;93641.97;5098725;28;20116;-77
2022/07/12 00:35:54;;;;;;;4.15;2.75;;;;;;;10.05;100.00;93636.81;5099510;28;20458;-77
2022/07/12 00:38:21;;;;;;;4.47;3.03;;;;;;;9.97;100.00;93630.09;5097250;28;20044;-77
2022/07/12 00:40:49;;;;;;;3.45;3.15;;;;;;;9.84;100.00;93617.22;5100394;28;20051;-77
2022/07/12 00:43:17;;;;;;;4.60;3.05;;;;;;;9.81;100.00;93620.19;5100120;28;20100;-77
2022/07/12 00:45:44;;;;;;;4.45;3.10;;;;;;;9.94;100.00;93634.81;5096886;28;20063;-77
2022/07/12 00:48:13;;;;;;;4.28;3.42;;;;;;;9.78;100.00;93603.41;5098122;28;20093;-77
2022/07/12 00:50:40;;;;;;;3.80;3.22;;;;;;;10.00;100.00;93629.69;5097579;28;20056;-81
2022/07/12 00:53:09;;;;;;;3.58;3.00;;;;;;;10.00;100.00;93627.13;5098313;28;20039;-76
2022/07/12 00:55:36;;;;;;;4.43;3.63;;;;;;;9.99;100.00;93624.75;5099081;28;20043;-76
2022/07/12 00:58:02;;;;;;;3.78;3.15;;;;;;;9.75;100.00;93583.28;5097445;28;20044;-77
2022/07/12 01:00:31;;;;;;;3.50;3.20;;;;;;;9.93;100.00;93620.41;5097886;28;20050;-77
2022/07/12 01:03:01;;;;;;;3.17;2.88;;;;;;;9.84;100.00;93612.91;5100045;28;20117;-76
2022/07/12 01:05:29;;;;;;;4.57;3.22;;;;;;;9.75;100.00;93619.19;5097971;28;20489;-77
2022/07/12 01:07:57;;;;;;;4.40;3.17;;;;;;;9.82;100.00;93632.81;5099677;28;20043;-76
2022/07/12 01:10:24;;;;;;;3.45;2.83;;;;;;;9.72;100.00;93633.19;5098395;28;20101;-77
2022/07/12 01:12:51;;;;;;;3.50;3.20;;;;;;;9.65;100.00;93622.13;5097739;28;20445;-76
2022/07/12 01:15:19;;;;;;;4.72;3.17;;;;;;;9.59;100.00;93625.47;5099648;28;20044;-76
2022/07/12 01:17:47;;;;;;;3.35;3.05;;;;;;;9.47;100.00;93613.19;5097817;28;20562;-77
2022/07/12 01:20:14;;;;;;;4.32;3.20;;;;;;;9.51;100.00;93618.72;5097005;28;20084;-77
2022/07/12 01:22:44;;;;;;;5.00;3.13;;;;;;;9.62;100.00;93627.63;5097899;28;20044;-78
2022/07/12 01:25:12;;;;;;;6.43;3.70;;;;;;;9.55;100.00;93612.25;5098067;28;20093;-78
2022/07/12 01:27:39;;;;;;;3.78;3.33;;;;;;;9.47;100.00;93615.78;5099385;28;20505;-78
2022/07/12 01:30:07;;;;;;;5.43;3.47;;;;;;;9.46;100.00;93608.25;5098018;28;20489;-77
2022/07/12 01:32:34;;;;;;;3.88;3.47;;;;;;;9.40;100.00;93589.28;5097531;28;20496;-78
2022/07/12 01:35:03;;;;;;;4.65;3.03;;;;;;;9.32;100.00;93574.91;5097371;28;20546;-76
2022/07/12 01:37:31;;;;;;;4.22;3.55;;;;;;;9.51;100.00;93611.03;5097669;28;20164;-76
2022/07/12 01:39:59;;;;;;;5.60;3.80;;;;;;;9.56;100.00;93613.81;5099192;28;20052;-78
2022/07/12 01:42:29;;;;;;;4.45;3.42;;;;;;;9.54;100.00;93615.78;5098056;28;20444;-77
2022/07/12 01:44:57;;;;;;;4.72;3.95;;;;;;;9.58;100.00;93614.41;5100566;28;20047;-77
2022/07/12 01:47:25;;;;;;;3.88;3.20;;;;;;;9.53;100.00;93605.72;5102725;28;20483;-77
2022/07/12 01:49:52;;;;;;;4.20;3.40;;;;;;;9.46;100.00;93603.13;5091640;28;20090;-77
2022/07/12 01:52:20;;;;;;;4.80;3.75;;;;;;;9.53;100.00;93610.84;5092786;28;20391;-77
2022/07/12 01:54:48;;;;;;;4.60;3.53;;;;;;;9.52;100.00;93609.25;5092873;28;20551;-77
2022/07/12 01:57:15;;;;;;;4.43;3.10;;;;;;;9.49;100.00;93618.91;5092583;28;20048;-77
2022/07/12 01:59:43;;;;;;;4.20;3.47;;;;;;;9.48;100.00;93604.53;5092437;28;20056;-77
2022/07/12 02:02:10;;;;;;;3.72;3.10;;;;;;;9.55;100.00;93606.31;5093087;28;20044;-77
2022/07/12 02:04:37;;;;;;;5.20;3.25;;;;;;;9.53;100.00;93610.84;5093018;28;20379;-77
2022/07/12 02:07:05;;;;;;;3.50;3.20;;;;;;;9.48;100.00;93607.09;5092172;28;20455;-77
2022/07/12 02:09:31;;;;;;;3.60;2.97;;;;;;;9.43;100.00;93606.06;5092846;28;20093;-77
2022/07/12 02:11:58;;;;;;;5.45;3.50;;;;;;;9.34;100.00;93608.81;5093166;28;20044;-77
2022/07/12 02:14:26;;;;;;;4.35;3.50;;;;;;;9.35;100.00;93607.03;5092080;28;20043;-77
2022/07/12 02:16:54;;;;;;;4.85;3.58;;;;;;;9.32;100.00;93607.41;5092827;28;20090;-77
2022/07/12 02:19:21;;;;;;;4.00;3.58;;;;;;;9.32;100.00;93608.22;5092348;28;20078;-77
2022/07/12 02:21:48;;;;;;;4.70;3.10;;;;;;;9.36;100.00;93606.06;5092473;28;20052;-77
2022/07/12 02:24:15;;;;;;;4.07;3.35;;;;;;;9.40;100.00;93617.50;5092879;28;20417;-77
2022/07/12 02:26:43;;;;;;;3.95;3.33;;;;;;;9.33;100.00;93616.69;5092538;28;20052;-77
2022/07/12 02:29:10;;;;;;;4.10;3.65;;;;;;;9.30;100.00;93611.97;5092798;28;20104;-77
2022/07/12 02:31:37;;;;;;;4.97;3.40;;;;;;;9.24;100.00;93595.56;5092546;28;20036;-77
2022/07/12 02:34:05;;;;;;;4.32;3.05;;;;;;;9.31;100.00;93610.97;5092636;28;20044;-77
2022/07/12 02:36:33;;;;;;;4.28;3.45;;;;;;;9.23;100.00;93611.94;5092842;28;20048;-77
2022/07/12 02:39:03;;;;;;;5.20;3.78;;;;;;;9.19;100.00;93611.53;5092292;28;20505;-77
2022/07/12 02:41:30;;;;;;;5.05;3.92;;;;;;;9.14;100.00;93613.06;5092107;28;20063;-77
2022/07/12 02:43:57;;;;;;;5.00;3.38;;;;;;;9.12;100.00;93620.94;5092335;28;20122;-77
2022/07/12 02:46:24;;;;;;;4.75;4.03;;;;;;;9.08;100.00;93617.19;5102082;28;20055;-77
2022/07/12 02:48:51;;;;;;;5.85;4.10;;;;;;;9.12;100.00;93623.50;5075725;28;20087;-76
2022/07/12 02:51:19;;;;;;;3.90;3.60;;;;;;;9.12;100.00;93618.38;5071793;28;20052;-77
2022/07/12 02:53:46;;;;;;;5.35;3.88;;;;;;;8.99;100.00;93619.13;5071702;28;20056;-76
2022/07/12 02:56:13;;;;;;;4.07;3.67;;;;;;;9.06;100.00;93626.81;5071771;28;20102;-76
2022/07/12 02:58:39;;;;;;;4.60;4.13;;;;;;;9.09;100.00;93631.56;5071638;28;20053;-76
2022/07/12 03:01:06;;;;;;;4.10;3.70;;;;;;;9.10;100.00;93633.16;5070662;28;20572;-77
2022/07/12 03:03:33;;;;;;;8.15;4.43;;;;;;;8.85;100.00;93607.22;5071409;28;20063;-77
2022/07/12 03:06:00;;;;;;;4.82;3.95;;;;;;;9.05;100.00;93628.59;5071168;28;20490;-77
2022/07/12 03:08:28;;;;;;;5.95;4.65;;;;;;;9.11;100.00;93637.28;5071504;28;20086;-77
2022/07/12 03:10:55;;;;;;;4.53;3.70;;;;;;;9.13;100.00;93643.03;5071616;28;20044;-77
2022/07/12 03:13:21;;;;;;;4.88;3.60;;;;;;;9.11;100.00;93637.28;5071304;28;20460;-77
2022/07/12 03:15:49;;;;;;;4.63;3.72;;;;;;;9.03;100.00;93633.13;5071328;28;20044;-77
2022/07/12 03:18:17;;;;;;;4.65;3.28;;;;;;;9.03;100.00;93628.00;5071391;28;20041;-77
2022/07/12 03:20:43;;;;;;;3.72;3.35;;;;;;;9.14;100.00;93636.13;5071226;28;20422;-77
2022/07/12 03:23:10;;;;;;;7.07;4.65;;;;;;;9.12;100.00;93649.13;5071160;28;20044;-77
2022/07/12 03:25:38;;;;;;;5.75;3.90;;;;;;;8.93;100.00;93641.16;5071424;28;20040;-78
2022/07/12 03:28:05;;;;;;;9.10;4.70;;;;;;;8.98;100.00;93645.69;5071347;28;20052;-77
2022/07/12 03:30:32;;;;;;;6.22;3.95;;;;;;;9.02;100.00;93659.72;5071225;28;20486;-76
2022/07/12 03:32:58;;;;;;;4.65;3.97;;;;;;;9.01;100.00;93659.91;5071245;28;20118;-76
2022/07/12 03:35:25;;;;;;;5.28;3.70;;;;;;;9.12;100.00;93659.38;5070792;28;20098;-77
2022/07/12 03:37:53;;;;;;;4.95;4.10;;;;;;;9.13;100.00;93655.84;5070592;28;20498;-77
2022/07/12 03:40:21;;;;;;;5.25;3.65;;;;;;;9.08;100.00;93653.06;5070895;28;20193;-77
2022/07/12 03:42:50;;;;;;;6.20;4.07;;;;;;;9.12;100.00;93651.69;5070943;28;20090;-77
2022/07/12 03:45:17;;;;;;;7.22;4.15;;;;;;;9.06;100.00;93640.44;5070890;28;20040;-78
2022/07/12 03:47:44;;;;;;;6.75;4.57;;;;;;;9.20;100.00;93651.53;5095742;28;20056;-78
2022/07/12 03:50:13;;;;;;;5.93;4.50;;;;;;;9.13;100.00;93637.13;5091177;28;20097;-78
2022/07/12 03:52:40;;;;;;;7.22;4.38;;;;;;;9.30;100.00;93650.41;5091300;28;20044;-78
2022/07/12 03:55:08;;;;;;;5.93;4.60;;;;;;;9.34;100.00;93654.97;5090994;28;20051;-77
2022/07/12 03:57:35;;;;;;;4.95;3.33;;;;;;;9.38;100.00;93654.56;5090859;28;20048;-77
2022/07/12 04:00:07;;;;;;;5.65;3.33;;;;;;;9.32;100.00;93653.56;5090809;28;20044;-77
2022/07/12 04:02:34;;;;;;;4.15;3.20;;;;;;;9.34;100.00;93654.16;5090640;28;20052;-76
2022/07/12 04:05:00;;;;;;;6.07;3.58;;;;;;;9.32;100.00;93641.56;5090776;28;20044;-78
2022/07/12 04:07:27;;;;;;;3.53;2.95;;;;;;;9.30;100.00;93652.97;5090576;28;20055;-77
2022/07/12 04:09:54;;;;;;;3.53;3.20;;;;;;;9.31;100.00;93662.25;5090643;28;20056;-77
2022/07/12 04:12:21;;;;;;;6.00;3.33;;;;;;;9.36;100.00;93658.13;5090028;28;20052;-77
2022/07/12 04:14:47;;;;;;;3.80;2.88;;;;;;;9.35;100.00;93656.53;5090755;28;20094;-77
2022/07/12 04:17:15;;;;;;;4.45;3.00;;;;;;;9.35;100.00;93666.78;5091078;28;20048;-77
2022/07/12 04:19:42;;;;;;;6.15;3.40;;;;;;;9.38;100.00;93664.81;5090073;28;20048;-76
2022/07/12 04:22:09;;;;;;;4.85;3.30;;;;;;;9.39;100.00;93669.00;5090142;28;20102;-77
2022/07/12 04:24:36;;;;;;;5.82;3.22;;;;;;;9.44;100.00;93671.78;5090280;28;20097;-77
2022/07/12 04:27:02;;;;;;;4.63;3.10;;;;;;;9.54;100.00;93673.97;5090219;28;20510;-78
2022/07/12 04:29:29;;;;;;;4.72;3.90;;;;;;;9.67;100.00;93676.59;5090483;28;20048;-77
2022/07/12 04:31:56;;;;;;;6.80;4.30;;;;;;;9.72;100.00;93673.47;5090476;28;20040;-77
2022/07/12 04:34:24;;;;;;;8.27;3.72;;;;;;;9.80;100.00;93672.47;5089806;28;20052;-77
2022/07/12 04:36:51;;;;;;;5.03;4.00;;;;;;;9.90;100.00;93675.47;5090241;28;20056;-77
2022/07/12 04:39:17;;;;;;;5.72;3.80;;;;;;;10.00;100.00;93673.31;5090110;28;20052;-79
2022/07/12 04:41:44;;;;;;;9.20;4.43;;;;;;;10.06;100.00;93676.09;5090026;28;20559;-79
2022/07/12 04:44:11;;;;;;;9.40;3.80;;;;;;;9.88;100.00;93633.81;5090440;28;20097;-79
2022/07/12 04:46:38;;;;;;;7.10;3.97;;;;;;;10.21;100.00;93681.84;5101574;28;20044;-75
2022/07/12 04:49:06;;;;;;;5.55;3.92;;;;;;;10.31;100.00;93680.69;5091625;28;20040;-76
2022/07/12 04:51:34;;;;;;;5.65;3.47;;;;;;;10.42;100.00;93680.88;5089754;28;20386;-75
2022/07/12 04:54:01;;;;;;;4.82;4.05;;;;;;;10.53;100.00;93674.41;5089769;28;20044;-77
2022/07/12 04:56:27;;;;;;;4.85;3.92;;;;;;;10.62;100.00;93680.16;5089736;28;20063;-77
2022/07/12 04:58:54;;;;;;;7.78;5.00;;;;;;;10.51;100.00;93665.31;5089615;28;20440;-77
2022/07/12 05:01:21;;;;;;;7.05;5.40;;;;;;;10.59;100.00;93672.81;5089846;28;20448;-77
2022/07/12 05:03:48;;;;;;;6.40;4.25;;;;;;;10.35;100.00;93680.09;5089729;28;20097;-76
2022/07/12 05:06:14;;;;;;;7.72;4.20;;;;;;;10.20;100.00;93689.75;5089573;28;20412;-76
2022/07/12 05:08:42;;;;;;;5.15;4.30;;;;;;;10.16;100.00;93687.59;5089524;28;20100;-76
2022/07/12 05:11:09;;;;;;;6.00;4.03;;;;;;;10.29;100.00;93681.66;5089516;28;20036;-76
2022/07/12 05:13:36;;;;;;;4.97;3.88;;;;;;;10.39;100.00;93685.63;5089613;28;20040;-77
2022/07/12 05:16:03;;;;;;;5.40;3.65;;;;;;;10.61;100.00;93681.13;5088954;28;20047;-76
2022/07/12 05:18:30;;;;;;;6.05;4.57;;;;;;;10.76;100.00;93680.94;5089438;28;20391;-76
2022/07/12 05:20:57;;;;;;;6.50;3.70;;;;;;;10.89;100.00;93682.69;5088968;28;20052;-77
2022/07/12 05:23:23;;;;;;;5.50;3.90;;;;;;;11.11;100.00;93685.03;5089094;28;20051;-76
2022/07/12 05:25:51;;;;;;;5.20;3.55;;;;;;;11.29;100.00;93681.06;5088953;28;20052;-76
2022/07/12 05:28:18;;;;;;;3.92;3.10;;;;;;;11.52;100.00;93675.41;5089108;28;20587;-76
2022/07/12 05:30:45;;;;;;;4.78;3.40;;;;;;;11.67;100.00;93669.25;5088815;28;20093;-76
2022/07/12 05:33:13;;;;;;;5.07;3.17;;;;;;;11.99;100.00;93680.34;5088669;28;20498;-76
2022/07/12 05:35:39;;;;;;;7.70;5.10;;;;;;;12.16;99.33;93679.91;5088734;28;20139;-76
2022/07/12 05:38:06;;;;;;;7.53;4.55;;;;;;;12.26;97.07;93676.88;5088488;28;20048;-76
2022/07/12 05:40:33;;;;;;;8.13;5.38;;;;;;;12.18;97.64;93665.06;5088759;28;20054;-76
2022/07/12 05:43:02;;;;;;;9.75;5.55;;;;;;;12.19;95.85;93653.75;5089036;28;20067;-76
2022/07/12 05:45:28;;;;;;;8.68;5.07;;;;;;;12.47;96.51;93654.34;5090791;28;20090;-76
2022/07/12 05:47:55;;;;;;;9.63;4.68;;;;;;;12.78;96.24;93663.78;5100812;28;20126;-76
2022/07/12 05:50:22;;;;;;;12.57;6.78;;;;;;;13.10;91.96;93673.22;5088983;28;20055;-76
2022/07/12 05:55:33;;;;;;;23.90;11.32;;;;;;;13.49;90.74;93673.06;5088702;28;20097;-76
2022/07/12 05:58:00;;;;;;;18.63;8.75;;;;;;;13.74;89.41;93675.53;5088560;28;20498;-76
2022/07/12 06:00:28;;;;;;;14.05;6.57;;;;;;;14.06;88.50;93669.38;5088592;28;20485;-76
2022/07/12 06:02:55;;;;;;;13.77;7.35;;;;;;;14.42;86.49;93672.88;5088964;28;20040;-76
2022/07/12 06:05:22;;;;;;;20.27;9.45;;;;;;;14.74;80.42;93678.72;5088941;28;20052;-76
2022/07/12 06:07:48;;;;;;;21.77;8.70;;;;;;;14.94;79.30;93670.66;5088763;28;20050;-76
2022/07/12 06:10:15;;;;;;;18.42;8.85;;;;;;;15.41;81.16;93663.91;5088752;28;20184;-76
2022/07/12 06:12:42;;;;;;;18.23;7.43;;;;;;;15.84;78.57;93662.63;5088445;28;20440;-76
2022/07/12 06:15:10;;;;;;;12.73;5.72;;;;;;;16.26;74.10;93653.81;5088611;28;20098;-76
2022/07/12 06:17:38;;;;;;;10.35;4.88;;;;;;;16.67;68.01;93660.69;5088498;28;20447;-76
2022/07/12 06:20:05;;;;;;;13.98;6.57;;;;;;;17.01;69.42;93671.03;5088447;28;20398;-76
2022/07/12 06:22:32;;;;;;;16.98;7.10;;;;;;;17.46;68.08;93666.69;5088676;28;20091;-76
2022/07/12 06:24:59;;;;;;;14.77;7.28;;;;;;;17.85;65.72;93659.84;5088579;28;20040;-76
2022/07/12 06:27:26;;;;;;;8.80;3.15;;;;;;;18.12;60.31;93656.53;5088728;28;20063;-76
2022/07/12 06:29:53;;;;;;;7.75;3.22;;;;;;;18.47;60.24;93662.31;5088400;28;20086;-77
2022/07/12 06:32:20;;;;;;;5.25;2.20;;;;;;;18.75;57.52;93660.44;5088438;28;20094;-77
2022/07/12 06:34:48;;;;;;;8.73;2.97;;;;;;;18.49;58.27;93655.03;5088823;28;20841;-77
2022/07/12 06:37:15;;;;;;;10.82;3.88;;;;;;;18.78;57.04;93665.13;5091948;28;20047;-77
2022/07/12 06:39:43;;;;;;;9.85;3.47;;;;;;;19.29;58.75;93666.50;5092278;28;20048;-77
2022/07/12 06:42:10;;;;;;;10.38;3.60;;;;;;;19.57;57.45;93662.72;5091607;28;20097;-77
2022/07/12 06:44:37;;;;;;;6.75;2.53;;;;;;;19.80;54.70;93657.34;5092099;28;20048;-78
2022/07/12 06:47:04;;;;;;;7.80;2.40;;;;;;;20.13;54.62;93650.13;5106190;28;20055;-77
2022/07/12 06:49:31;;;;;;;11.02;2.63;;;;;;;20.16;50.73;93649.63;5091527;28;20040;-76
2022/07/12 06:51:59;;;;;;;6.82;2.47;;;;;;;19.14;51.65;93652.38;5091899;28;20043;-76
2022/07/12 06:54:26;;;;;;;8.70;3.50;;;;;;;18.59;54.47;93649.09;5091503;28;20040;-76
2022/07/12 06:56:53;;;;;;;10.75;3.20;;;;;;;19.29;56.12;93653.47;5091859;28;20052;-76
2022/07/12 06:59:19;;;;;;;8.88;3.20;;;;;;;19.82;56.24;93637.03;5091864;28;20062;-76
2022/07/12 07:01:46;;;;;;;15.50;4.10;;;;;;;19.60;54.26;93649.22;5091614;28;20052;-76
2022/07/12 07:04:13;;;;;;;10.65;2.17;;;;;;;19.75;52.99;93651.06;5091816;28;20102;-77
2022/07/12 07:06:40;;;;;;;11.30;3.00;;;;;;;20.39;54.01;93642.34;5091758;28;20449;-76
2022/07/12 07:09:08;;;;;;;9.70;2.60;;;;;;;20.64;52.74;93643.41;5090790;28;20097;-77
2022/07/12 07:11:36;;;;;;;8.00;2.15;;;;;;;21.06;52.65;93646.78;5091768;28;20063;-77
2022/07/12 07:14:04;;;;;;;8.50;1.50;;;;;;;21.33;50.93;93651.66;5091479;28;20129;-77
2022/07/12 07:16:30;;;;;;;10.45;2.22;;;;;;;21.59;48.32;93645.56;5091167;28;20040;-77
2022/07/12 07:18:57;;;;;;;8.35;1.77;;;;;;;21.14;48.07;93648.84;5091419;28;20505;-76
2022/07/12 07:21:24;;;;;;;4.00;1.50;;;;;;;21.31;51.12;93642.53;5091043;28;20497;-77
2022/07/12 07:23:51;;;;;;;3.90;1.40;;;;;;;21.56;48.18;93638.28;5091564;28;20045;-77
2022/07/12 07:26:20;;;;;;;3.45;1.42;;;;;;;21.71;49.51;93650.53;5090939;28;20052;-77
2022/07/12 07:31:31;;;;;;;5.80;1.80;;;;;;;21.72;46.83;93634.53;5091323;28;20116;-77
2022/07/12 07:33:57;;;;;;;5.80;1.50;;;;;;;21.72;48.19;93641.63;5090931;28;20055;-76
2022/07/12 07:36:24;;;;;;;6.80;1.88;;;;;;;20.81;51.57;93641.31;5091017;28;20094;-79
2022/07/12 07:38:51;;;;;;;4.40;1.10;;;;;;;21.22;48.53;93637.06;5091243;28;20165;-78
2022/07/12 07:41:19;;;;;;;5.90;1.30;;;;;;;21.67;47.35;93639.78;5090937;28;20055;-79
2022/07/12 07:43:46;;;;;;;3.58;1.30;;;;;;;21.46;46.73;93634.63;5091002;28;20633;-78
2022/07/12 07:46:13;;;;;;;7.45;1.75;;;;;;;21.81;49.45;93636.59;5099361;28;20063;-78
2022/07/12 07:48:39;;;;;;;5.78;1.30;;;;;;;21.39;47.10;93635.97;5097132;28;20056;-79
2022/07/12 07:51:06;;;;;;;2.65;1.00;;;;;;;19.68;49.74;93642.72;5091200;28;20101;-78
2022/07/12 07:53:33;;;;;;;2.25;0.90;;;;;;;18.43;52.79;93647.19;5091249;28;20048;-78
2022/07/12 07:55:59;;;;;;;2.97;0.80;;;;;;;17.92;54.92;93637.09;5090649;28;20089;-78
2022/07/12 07:58:28;;;;;;;4.45;1.30;;;;;;;18.48;56.75;93635.25;5090731;28;20052;-78
2022/07/12 08:00:55;;;;;;;6.50;1.40;;;;;;;19.09;54.95;93624.50;5090515;28;20040;-78
2022/07/12 08:03:21;;;;;;;3.35;1.35;;;;;;;19.74;55.03;93626.06;5090947;28;20065;-79
2022/07/12 08:05:50;;;;;;;2.85;1.30;;;;;;;20.02;49.32;93641.53;5090698;28;20085;-80
2022/07/12 08:08:17;;;;;;;2.08;0.82;;;;;;;19.02;50.19;93629.09;5090942;28;20474;-79
2022/07/12 08:10:44;;;;;;;2.00;0.90;;;;;;;19.86;49.34;93625.03;5090588;28;20048;-78
2022/07/12 08:13:11;;;;;;;4.20;1.33;;;;;;;19.91;49.01;93627.66;5090595;28;20536;-77
2022/07/12 08:15:39;;;;;;;4.15;1.00;;;;;;;19.89;51.65;93627.13;5090480;28;20996;-78
2022/07/12 08:18:06;;;;;;;1.88;0.73;;;;;;;20.60;52.00;93613.66;5090142;28;20093;-78
2022/07/12 08:20:32;;;;;;;3.40;0.80;;;;;;;21.14;47.78;93611.47;5090676;28;20100;-78
2022/07/12 08:22:59;;;;;;;2.55;0.50;;;;;;;20.61;45.87;93620.44;5090312;28;20456;-78
2022/07/12 08:25:26;;;;;;;1.80;0.50;;;;;;;19.49;45.71;93630.13;5090484;28;20044;-77
2022/07/12 08:27:52;;;;;;;1.42;0.70;;;;;;;19.12;48.59;93627.63;5090366;28;20059;-78
2022/07/12 08:30:19;;;;;;;2.17;0.52;;;;;;;19.51;49.05;93622.06;5090029;28;20044;-78
2022/07/12 08:32:48;;;;;;;2.45;0.50;;;;;;;19.83;46.02;93615.91;5090157;28;20043;-78
2022/07/12 08:35:15;;;;;;;3.92;0.80;;;;;;;19.68;44.63;93621.09;5090746;28;20048;-78
2022/07/12 08:37:42;;;;;;;2.70;0.90;;;;;;;20.47;45.49;93618.34;5105827;28;20050;-78
2022/07/12 08:40:10;;;;;;;1.52;0.50;;;;;;;20.60;42.90;93606.59;5090174;28;20097;-78
2022/07/12 08:42:41;;;;;;;2.10;0.60;;;;;;;20.36;43.17;93609.72;5090064;28;20051;-78
2022/07/12 08:45:08;;;;;;;3.60;1.35;;;;;;;20.59;43.27;93615.47;5089818;28;20527;-78
2022/07/12 08:47:37;;;;;;;7.95;1.20;;;;;;;20.82;43.42;93616.75;5104176;28;20044;-78
2022/07/12 08:50:12;;;;;;;1.98;0.60;;;;;;;20.94;44.49;93621.72;5094651;28;20510;-78
2022/07/12 08:52:39;;;;;;;;;;;;;;;21.41;43.37;93610.34;5098945;28;20052;-79
2022/07/12 08:55:20;;;;;;;4.05;1.10;;;;;;;20.50;41.69;93583.91;5098055;28;19931;-78
2022/07/12 08:57:47;;;;;;;2.47;0.70;;;;;;;20.65;42.70;93616.25;5097257;28;20093;-78
2022/07/12 09:00:15;;;;;;;2.08;0.52;;;;;;;20.68;41.60;93594.84;5103829;28;20493;-77
2022/07/12 09:02:49;;;;;;;2.88;0.73;;;;;;;20.94;44.03;93600.06;5093827;28;20097;-79
2022/07/12 09:05:19;;;;;;;2.55;0.50;;;;;;;20.70;40.15;93598.75;5103911;28;20047;-78
2022/07/12 09:07:47;;;;;;;1.23;0.50;;;;;;;20.62;39.20;93596.69;5092049;28;20555;-76
2022/07/12 09:10:14;;;;;;;2.35;0.45;;;;;;;20.92;41.48;93592.47;5109359;28;20497;-77
2022/07/12 09:12:41;;;;;;;2.22;0.70;;;;;;;21.33;41.68;93588.97;5089778;28;20044;-77
2022/07/12 09:15:13;;;;;;;1.90;0.52;;;;;;;21.39;40.31;93558.38;5089950;28;20044;-77
2022/07/12 09:17:39;;;;;;;1.83;0.70;;;;;;;21.35;42.30;93592.06;5089304;28;20501;-80
2022/07/12 09:20:10;;;;;;;3.42;1.00;;;;;;;21.02;41.12;93596.13;5093524;28;20092;-78
2022/07/12 09:22:39;;;;;;;2.25;0.95;;;;;;;21.36;42.91;93592.88;5099818;28;20528;-78
2022/07/12 09:25:17;;;;;;;2.33;0.50;;;;;;;21.41;40.96;93597.28;5089365;28;20089;-77
2022/07/12 09:27:50;;;;;;;2.28;0.40;;;;;;;21.82;41.48;93585.88;5089613;28;20131;-79
2022/07/12 09:30:17;;;;;;;3.00;0.90;;;;;;;22.08;41.54;93588.34;5089430;28;20497;-78
2022/07/12 09:38:30;;;;;;;3.33;0.90;;;;;;;20.99;40.83;93560.06;5089326;28;20055;-76
2022/07/12 09:40:57;;;;;;;1.73;0.90;;;;;;;20.55;41.62;93589.13;5089303;28;20334;-79
2022/07/12 09:43:24;;;;;;;1.35;0.60;;;;;;;20.35;44.35;93589.91;5097646;28;20078;-79
2022/07/12 09:45:51;;;;;;;1.85;0.70;;;;;;;20.79;44.53;93590.41;5100829;28;20043;-79
2022/07/12 09:48:20;;;;;;;1.67;0.40;;;;;;;21.25;43.30;93586.91;5097789;28;20501;-79
2022/07/12 09:50:50;;;;;;;2.80;0.70;;;;;;;22.00;42.67;93577.38;5089453;28;20040;-78
2022/07/12 09:53:29;;;;;;;1.85;0.80;;;;;;;22.27;41.77;93583.22;5089192;28;20093;-79
2022/07/12 09:55:57;;;;;;;2.22;0.73;;;;;;;21.97;37.71;93580.53;5090819;28;20040;-78
2022/07/12 09:58:27;;;;;;;1.50;0.60;;;;;;;22.28;38.43;93576.94;5109180;28;20547;-80
2022/07/12 10:00:55;;;;;;;4.32;1.40;;;;;;;22.36;40.10;93588.66;5094037;28;20052;-78
2022/07/12 10:03:23;;;;;;;3.10;0.68;;;;;;;22.27;38.92;93589.22;5088920;28;20052;-78
2022/07/12 10:05:52;;;;;;;26.10;4.30;;;;;;;22.07;40.91;93594.63;5089482;28;20413;-80
2022/07/12 10:08:20;;;;;;;1.92;0.63;;;;;;;21.98;38.57;93584.72;5088966;28;20099;-78
2022/07/12 10:10:49;;;;;;;4.57;0.75;;;;;;;22.33;40.14;93578.72;5091299;28;20517;-79
2022/07/12 10:13:18;;;;;;;2.60;0.68;;;;;;;22.67;41.01;93573.47;5097789;28;20039;-78
2022/07/12 10:15:47;;;;;;;1.67;0.70;;;;;;;22.35;39.65;93577.38;5101717;28;20497;-79
2022/07/12 10:18:21;;;;;;;2.30;0.52;;;;;;;21.29;41.58;93567.00;5092978;28;20044;-78
2022/07/12 10:20:49;;;;;;;1.50;0.57;;;;;;;21.63;40.65;93576.03;5093324;28;20761;-79
2022/07/12 10:23:37;;;;;;;2.17;0.80;;;;;;;21.22;40.43;93584.81;5092635;28;20047;-78
2022/07/12 10:26:26;;;;;;;5.13;0.70;;;;;;;21.49;41.40;93583.66;5092862;28;20089;-78
2022/07/12 10:29:04;;;;;;;4.97;0.85;;;;;;;21.67;42.08;93569.22;5099181;28;20032;-79
2022/07/12 10:31:53;;;;;;;2.45;0.50;;;;;;;21.01;41.00;93537.09;5098820;28;20079;-78
2022/07/12 10:34:38;;;;;;;0.73;0.30;;;;;;;21.75;41.76;93568.66;5101157;28;20060;-78
2022/07/12 10:37:16;;;;;;;4.07;0.75;;;;;;;22.29;42.46;93576.66;5098015;28;20402;-79
2022/07/12 10:40:12;;;;;;;1.42;0.60;;;;;;;20.50;42.42;93577.91;5092604;28;20099;-77
2022/07/12 10:42:40;;;;;;;2.95;0.75;;;;;;;20.30;45.29;93566.44;5101500;28;20048;-79
2022/07/12 10:45:16;;;;;;;2.45;0.90;;;;;;;20.54;44.75;93568.50;5102840;28;20131;-78
2022/07/12 10:47:56;;;;;;;1.40;0.60;;;;;;;20.47;43.34;93557.56;5095775;28;20070;-79
2022/07/12 10:50:57;;;;;;;2.22;0.70;;;;;;;20.89;44.01;93572.13;5093258;28;20101;-78
2022/07/12 10:53:30;;;;;;;3.90;0.80;;;;;;;21.30;44.12;93568.56;5092135;28;20139;-79
2022/07/12 10:56:17;;;;;;;1.67;0.57;;;;;;;21.78;41.33;93566.53;5092297;28;20055;-79
2022/07/12 10:58:46;;;;;;;2.33;0.70;;;;;;;21.96;41.13;93565.13;5092327;28;20609;-78
2022/07/12 11:01:17;;;;;;;1.52;0.55;;;;;;;21.90;39.50;93559.16;5092321;28;20444;-79
2022/07/12 11:03:46;;;;;;;3.83;0.88;;;;;;;21.83;41.13;93567.31;5092110;28;20121;-78
2022/07/12 11:06:14;;;;;;;3.88;0.88;;;;;;;21.39;43.03;93573.25;5092142;28;20048;-79
2022/07/12 11:08:57;;;;;;;2.22;0.80;;;;;;;20.43;41.06;93518.94;5089391;28;20048;-79
2022/07/12 11:11:26;;;;;;;1.45;0.60;;;;;;;21.02;42.18;93575.22;5090088;28;20394;-79
2022/07/12 11:13:54;;;;;;;1.45;0.70;;;;;;;20.89;43.10;93569.53;5091189;28;20052;-79
2022/07/12 11:16:23;;;;;;;2.72;0.60;;;;;;;21.15;41.59;93560.81;5091884;28;20097;-78
2022/07/12 11:18:50;;;;;;;1.85;0.80;;;;;;;21.87;43.77;93559.69;5091796;28;20448;-79
2022/07/12 11:21:17;;;;;;;3.28;0.60;;;;;;;22.37;43.04;93570.06;5091318;28;20044;-82
2022/07/12 11:23:44;;;;;;;4.82;1.15;;;;;;;22.99;40.40;93560.84;5091131;28;20067;-78
2022/07/12 11:26:12;;;;;;;8.00;1.30;;;;;;;23.60;42.42;93569.06;5091688;28;20056;-81
2022/07/12 11:28:40;;;;;;;2.80;0.60;;;;;;;22.89;42.08;93571.44;5091552;28;20051;-78
2022/07/12 11:31:08;;;;;;;2.85;0.70;;;;;;;23.37;39.56;93565.41;5100381;28;20450;-82
2022/07/12 11:33:37;;;;;;;2.20;0.70;;;;;;;23.61;38.62;93554.88;5096114;28;20040;-80
2022/07/12 11:36:06;;;;;;;1.20;0.50;;;;;;;23.20;40.17;93565.88;5091330;28;20097;-78
2022/07/12 11:38:34;;;;;;;2.08;1.10;;;;;;;23.75;41.40;93557.56;5091028;28;20054;-78
2022/07/12 11:41:03;;;;;;;1.98;0.73;;;;;;;24.51;39.58;93555.94;5091114;28;20040;-79
2022/07/12 11:43:31;;;;;;;3.55;0.60;;;;;;;25.16;38.64;93556.09;5090576;28;20052;-78
2022/07/12 11:45:58;;;;;;;2.05;0.40;;;;;;;25.38;37.28;93546.75;5097732;28;20043;-80
2022/07/12 11:48:26;;;;;;;5.68;0.80;;;;;;;25.26;37.81;93544.59;5099056;28;20056;-81